Time;durP1;ratioP1;P1;durP2;ratioP2;P2;SDS_P1;SDS_P2;PMS_P1;PMS_P2;Temp;Humidity;BMP_temperature;BMP_pressure;BME280_temperature;BME280_humidity;BME280_pressure;Samples;Min_cycle;Max_cycle;Signal;HPM_P1;HPM_P2
2023/08/12 00:01:06;;;;;;;5.60;5.20;;;20.40;99.90;;;;;;5004539;28;20587;-65
2023/08/12 00:03:34;;;;;;;5.60;5.20;;;20.40;99.90;;;;;;5005622;28;21015;-66
2023/08/12 00:06:05;;;;;;;5.90;5.50;;;20.40;99.90;;;;;;5001203;28;20472;-65
2023/08/12 00:08:33;;;;;;;6.83;5.30;;;20.40;99.90;;;;;;5004040;28;20468;-65
2023/08/12 00:11:01;;;;;;;5.57;4.83;;;20.40;99.90;;;;;;5001135;28;20637;-65
2023/08/12 00:13:28;;;;;;;5.37;4.97;;;20.30;99.90;;;;;;4999972;28;20587;-65
2023/08/12 00:15:56;;;;;;;7.73;5.77;;;20.40;99.90;;;;;;5011931;28;20522;-65
2023/08/12 00:18:26;;;;;;;5.17;4.87;;;20.40;99.90;;;;;;5008229;28;20468;-65
2023/08/12 00:20:55;;;;;;;5.37;4.97;;;20.30;99.90;;;;;;5010891;28;21144;-65
2023/08/12 00:23:23;;;;;;;5.40;5.00;;;20.30;99.90;;;;;;5008967;28;20480;-65
2023/08/12 00:25:51;;;;;;;5.37;4.97;;;20.30;99.90;;;;;;5006375;28;20532;-67
2023/08/12 00:28:19;;;;;;;4.60;4.30;;;20.30;99.90;;;;;;5012611;28;20464;-64
2023/08/12 00:30:49;;;;;;;5.07;4.70;;;20.30;99.90;;;;;;5016079;28;20939;-65
2023/08/12 00:33:18;;;;;;;4.90;4.60;;;20.20;99.90;;;;;;5011138;28;20512;-65
2023/08/12 00:35:47;;;;;;;5.10;4.70;;;20.30;99.90;;;;;;5001331;28;20491;-65
2023/08/12 00:38:15;;;;;;;6.00;4.43;;;20.20;99.90;;;;;;4994886;28;21052;-65
2023/08/12 00:40:43;;;;;;;5.13;4.83;;;20.20;99.90;;;;;;4994729;28;20503;-65
2023/08/12 00:43:12;;;;;;;5.20;4.80;;;20.20;99.90;;;;;;4994938;28;20492;-65
2023/08/12 00:45:41;;;;;;;5.27;4.87;;;20.20;99.90;;;;;;4996892;28;20554;-64
2023/08/12 00:48:09;;;;;;;5.53;5.03;;;20.10;99.90;;;;;;4999186;28;21229;-65
2023/08/12 00:50:42;;;;;;;4.53;4.23;;;20.20;99.90;;;;;;5000936;28;20468;-65
2023/08/12 00:53:13;;;;;;;4.93;4.40;;;20.20;99.90;;;;;;5006216;28;20496;-65
2023/08/12 00:55:41;;;;;;;5.33;4.83;;;20.10;99.90;;;;;;5003467;28;20476;-65
2023/08/12 00:58:10;;;;;;;7.07;4.50;;;20.10;99.90;;;;;;5003053;28;20535;-65
2023/08/12 01:00:38;;;;;;;4.67;4.23;;;20.10;99.90;;;;;;5003103;28;20575;-65
2023/08/12 01:03:06;;;;;;;6.70;4.50;;;20.10;99.90;;;;;;5002513;28;20495;-64
2023/08/12 01:05:35;;;;;;;5.87;5.00;;;20.10;99.90;;;;;;4995083;28;20477;-64
2023/08/12 01:08:06;;;;;;;4.67;4.20;;;20.10;99.90;;;;;;5003508;28;20542;-65
2023/08/12 01:10:38;;;;;;;4.50;4.20;;;20.10;99.90;;;;;;4995933;28;20484;-66
2023/08/12 01:13:17;;;;;;;5.77;4.67;;;20.10;99.90;;;;;;4999908;28;21039;-65
2023/08/12 01:15:46;;;;;;;5.07;4.53;;;20.00;99.90;;;;;;5004890;28;20484;-64
2023/08/12 01:18:16;;;;;;;4.70;4.30;;;20.00;99.90;;;;;;5008140;28;20471;-64
2023/08/12 01:20:44;;;;;;;5.43;4.53;;;20.00;99.90;;;;;;5007662;28;21063;-65
2023/08/12 01:23:14;;;;;;;5.17;4.67;;;20.00;99.90;;;;;;5009473;28;20552;-65
2023/08/12 01:25:42;;;;;;;5.40;4.63;;;20.00;99.90;;;;;;5006880;28;20938;-64
2023/08/12 01:28:10;;;;;;;5.20;4.80;;;20.00;99.90;;;;;;5005141;28;20511;-65
2023/08/12 01:30:47;;;;;;;4.30;3.93;;;20.00;99.90;;;;;;4995082;28;20855;-64
2023/08/12 01:33:22;;;;;;;5.37;4.20;;;20.00;99.90;;;;;;5002328;28;21059;-65
2023/08/12 01:36:00;;;;;;;5.10;4.60;;;19.90;99.90;;;;;;5000098;28;20471;-64
2023/08/12 01:38:32;;;;;;;4.70;4.40;;;20.00;99.90;;;;;;5001626;28;20503;-65
2023/08/12 01:41:01;;;;;;;4.77;4.37;;;19.90;99.90;;;;;;5004436;28;20538;-65
2023/08/12 01:43:30;;;;;;;4.90;4.50;;;19.80;99.90;;;;;;5001737;28;20603;-65
2023/08/12 01:45:58;;;;;;;4.93;4.53;;;19.80;99.90;;;;;;5000460;28;20464;-64
2023/08/12 01:48:26;;;;;;;5.20;4.80;;;19.70;99.90;;;;;;4997792;28;20472;-65
2023/08/12 01:50:54;;;;;;;5.53;5.10;;;19.60;99.90;;;;;;4994878;28;20498;-65
2023/08/12 01:53:22;;;;;;;5.50;5.10;;;19.60;99.90;;;;;;4996396;28;20488;-65
2023/08/12 01:55:53;;;;;;;5.50;5.03;;;19.60;99.90;;;;;;4995141;28;20472;-65
2023/08/12 01:58:21;;;;;;;5.03;4.67;;;19.50;99.90;;;;;;4994529;28;20726;-65
2023/08/12 02:00:49;;;;;;;5.10;4.60;;;19.50;99.90;;;;;;4995935;28;20479;-65
2023/08/12 02:03:17;;;;;;;4.77;4.40;;;19.40;99.90;;;;;;4997693;28;21092;-65
2023/08/12 02:05:45;;;;;;;5.07;4.63;;;19.40;99.90;;;;;;4997340;28;20504;-65
2023/08/12 02:08:14;;;;;;;5.07;4.67;;;19.30;99.90;;;;;;4995210;28;20504;-64
2023/08/12 02:10:42;;;;;;;4.77;4.37;;;19.30;99.90;;;;;;4994825;28;20476;-65
2023/08/12 02:13:11;;;;;;;4.60;4.30;;;19.30;99.90;;;;;;4993823;28;21103;-64
2023/08/12 02:15:39;;;;;;;5.00;4.60;;;19.20;99.90;;;;;;4989488;28;20474;-64
2023/08/12 02:18:07;;;;;;;5.87;4.83;;;19.20;99.90;;;;;;4993667;28;20480;-65
2023/08/12 02:20:35;;;;;;;5.17;4.77;;;19.20;99.90;;;;;;4995013;28;20475;-65
2023/08/12 02:23:04;;;;;;;5.73;5.27;;;19.20;99.90;;;;;;4995401;28;20580;-65
2023/08/12 02:25:32;;;;;;;5.23;4.77;;;19.20;99.90;;;;;;4994197;28;20598;-65
2023/08/12 02:28:00;;;;;;;5.87;5.47;;;19.20;99.90;;;;;;4995710;28;20479;-64
2023/08/12 02:30:30;;;;;;;5.60;5.10;;;19.10;99.90;;;;;;4998935;28;20512;-65
2023/08/12 02:32:58;;;;;;;6.10;5.60;;;19.10;99.90;;;;;;5000778;28;20894;-65
2023/08/12 02:35:26;;;;;;;5.20;4.80;;;19.10;99.90;;;;;;5002039;28;20463;-65
2023/08/12 02:37:54;;;;;;;5.03;4.67;;;19.10;99.90;;;;;;5023033;28;20448;-65
2023/08/12 02:40:22;;;;;;;5.10;4.70;;;19.10;99.90;;;;;;5012404;28;20504;-65
2023/08/12 02:42:50;;;;;;;5.53;5.03;;;19.00;99.90;;;;;;5006429;28;20583;-65
2023/08/12 02:45:18;;;;;;;5.40;4.90;;;19.10;99.90;;;;;;5004190;28;20472;-64
2023/08/12 02:47:47;;;;;;;5.57;4.80;;;19.00;99.90;;;;;;5004687;28;20558;-67
2023/08/12 02:50:16;;;;;;;5.30;4.90;;;19.00;99.90;;;;;;5011298;28;20583;-64
2023/08/12 02:52:44;;;;;;;5.17;4.77;;;19.00;99.90;;;;;;5005371;28;20861;-65
2023/08/12 02:55:13;;;;;;;5.83;5.33;;;19.00;99.90;;;;;;4998883;28;20559;-65
2023/08/12 02:57:41;;;;;;;5.23;4.87;;;19.00;99.90;;;;;;4998303;28;20495;-66
2023/08/12 03:00:10;;;;;;;6.23;5.50;;;19.00;99.90;;;;;;4997495;28;20508;-64
2023/08/12 03:02:38;;;;;;;5.23;4.77;;;19.00;99.90;;;;;;4997322;28;21096;-64
2023/08/12 03:05:08;;;;;;;5.57;5.17;;;19.00;99.90;;;;;;5001327;28;20484;-64
2023/08/12 03:07:37;;;;;;;5.33;4.83;;;19.00;99.90;;;;;;4998565;28;20504;-64
2023/08/12 03:10:05;;;;;;;5.43;5.03;;;19.00;99.90;;;;;;5000520;28;21118;-64
2023/08/12 03:12:33;;;;;;;5.80;5.30;;;19.00;99.90;;;;;;4994507;28;20591;-64
2023/08/12 03:15:02;;;;;;;5.60;5.20;;;19.00;99.90;;;;;;4997752;28;21016;-64
2023/08/12 03:17:30;;;;;;;5.40;4.90;;;18.90;99.90;;;;;;5004020;28;20563;-65
2023/08/12 03:19:59;;;;;;;5.83;5.43;;;18.90;99.90;;;;;;4999523;28;20483;-66
2023/08/12 03:22:29;;;;;;;5.47;4.97;;;18.90;99.90;;;;;;4997414;28;20495;-65
2023/08/12 03:24:57;;;;;;;5.60;5.10;;;18.80;99.90;;;;;;5000898;28;20487;-65
2023/08/12 03:27:25;;;;;;;5.43;4.93;;;18.80;99.90;;;;;;4998975;28;20612;-65
2023/08/12 03:29:53;;;;;;;5.80;5.30;;;18.80;99.90;;;;;;4999959;28;20560;-65
2023/08/12 03:32:21;;;;;;;5.70;5.10;;;18.80;99.90;;;;;;4996435;28;20916;-65
2023/08/12 03:34:49;;;;;;;5.37;4.97;;;18.80;99.90;;;;;;4996991;28;20522;-65
2023/08/12 03:37:17;;;;;;;5.63;5.23;;;18.80;99.90;;;;;;4997029;28;20911;-65
2023/08/12 03:39:46;;;;;;;5.50;5.10;;;18.80;99.90;;;;;;4998833;28;20563;-65
2023/08/12 03:42:16;;;;;;;5.70;5.30;;;18.80;99.90;;;;;;4998053;28;20500;-65
2023/08/12 03:44:44;;;;;;;5.20;4.80;;;18.80;99.90;;;;;;5002911;28;20553;-65
2023/08/12 03:47:12;;;;;;;5.27;4.83;;;18.80;99.90;;;;;;4994125;28;20911;-65
2023/08/12 03:49:40;;;;;;;6.83;5.40;;;18.70;99.90;;;;;;5013294;28;20487;-66
2023/08/12 03:52:08;;;;;;;5.50;5.10;;;18.70;99.90;;;;;;5017191;28;20886;-65
2023/08/12 03:54:36;;;;;;;5.73;5.23;;;18.70;99.90;;;;;;5005576;28;20567;-66
2023/08/12 03:57:06;;;;;;;5.03;4.73;;;18.60;99.90;;;;;;4997354;28;20512;-65
2023/08/12 03:59:34;;;;;;;5.50;5.10;;;18.60;99.90;;;;;;4992121;28;20594;-65
2023/08/12 04:02:03;;;;;;;4.67;4.37;;;18.50;99.90;;;;;;4984384;28;20496;-65
2023/08/12 04:04:31;;;;;;;6.43;5.20;;;18.50;99.90;;;;;;4992508;28;20812;-65
2023/08/12 04:06:59;;;;;;;5.70;5.30;;;18.60;99.90;;;;;;4993393;28;21486;-65
2023/08/12 04:09:27;;;;;;;5.57;5.17;;;18.50;99.90;;;;;;4993003;28;20538;-65
2023/08/12 04:11:56;;;;;;;6.20;5.60;;;18.50;99.90;;;;;;4989717;28;20503;-67
2023/08/12 04:14:25;;;;;;;5.53;5.13;;;18.50;99.90;;;;;;4990535;28;20685;-65
2023/08/12 04:16:53;;;;;;;6.77;5.60;;;18.50;99.90;;;;;;4990804;28;20480;-65
2023/08/12 04:19:21;;;;;;;6.50;5.90;;;18.40;99.90;;;;;;4988280;28;20475;-62
2023/08/12 04:21:49;;;;;;;6.70;5.23;;;18.40;99.90;;;;;;4989834;28;20809;-65
2023/08/12 04:24:17;;;;;;;6.60;6.00;;;18.30;99.90;;;;;;4988450;28;20595;-64
2023/08/12 04:26:45;;;;;;;5.20;4.90;;;18.30;99.90;;;;;;4997355;28;20468;-64
2023/08/12 04:29:13;;;;;;;6.27;5.77;;;18.30;99.90;;;;;;4990744;28;20566;-64
2023/08/12 04:31:43;;;;;;;6.00;5.50;;;18.30;99.90;;;;;;4988898;28;20492;-64
2023/08/12 04:34:11;;;;;;;5.60;5.20;;;18.30;99.90;;;;;;4994939;28;21027;-64
2023/08/12 04:36:38;;;;;;;5.83;5.43;;;18.30;99.90;;;;;;4999786;28;20552;-64
2023/08/12 04:39:10;;;;;;;6.20;5.90;;;18.30;99.90;;;;;;4994109;28;20855;-64
2023/08/12 04:41:38;;;;;;;5.57;5.17;;;18.30;99.90;;;;;;4992561;28;20492;-64
2023/08/12 04:44:07;;;;;;;5.63;5.20;;;18.30;99.90;;;;;;5019415;28;20492;-65
2023/08/12 04:46:35;;;;;;;6.00;5.47;;;18.30;99.90;;;;;;5009590;28;20938;-64
2023/08/12 04:49:04;;;;;;;6.20;5.63;;;18.30;99.90;;;;;;5000127;28;20530;-64
2023/08/12 04:51:32;;;;;;;6.10;5.50;;;18.30;99.90;;;;;;4996210;28;20492;-64
2023/08/12 04:54:01;;;;;;;6.40;5.80;;;18.30;99.90;;;;;;4992015;28;20482;-64
2023/08/12 04:56:29;;;;;;;5.80;5.30;;;18.30;99.90;;;;;;4994380;28;20563;-64
2023/08/12 04:58:57;;;;;;;6.80;5.80;;;18.40;99.90;;;;;;4994033;28;20472;-64
2023/08/12 05:01:25;;;;;;;6.30;5.70;;;18.40;99.90;;;;;;5000671;28;20575;-65
2023/08/12 05:03:53;;;;;;;6.70;5.57;;;18.40;99.90;;;;;;4996406;28;20484;-65
2023/08/12 05:06:24;;;;;;;6.30;5.80;;;18.40;99.90;;;;;;4996296;28;20486;-66
2023/08/12 05:08:52;;;;;;;6.20;5.80;;;18.40;99.90;;;;;;5000713;28;20476;-67
2023/08/12 05:11:20;;;;;;;5.73;5.23;;;18.50;99.90;;;;;;4993876;28;20496;-65
2023/08/12 05:13:48;;;;;;;6.00;5.60;;;18.40;99.90;;;;;;4998457;28;20488;-65
2023/08/12 05:16:16;;;;;;;6.00;5.50;;;18.40;99.90;;;;;;4996972;28;20590;-65
2023/08/12 05:18:44;;;;;;;6.20;5.70;;;18.50;99.90;;;;;;4997008;28;20468;-65
2023/08/12 05:21:12;;;;;;;6.27;5.80;;;18.50;99.90;;;;;;4999262;28;20496;-65
2023/08/12 05:23:41;;;;;;;6.10;5.43;;;18.50;99.90;;;;;;4997892;28;20483;-65
2023/08/12 05:26:09;;;;;;;6.37;5.87;;;18.50;99.90;;;;;;4998734;28;20567;-65
2023/08/12 05:28:37;;;;;;;6.03;5.63;;;18.50;99.90;;;;;;4998310;28;20547;-64
2023/08/12 05:31:05;;;;;;;5.80;5.40;;;18.50;99.90;;;;;;4997996;28;20550;-66
2023/08/12 05:33:33;;;;;;;6.50;6.00;;;18.50;99.90;;;;;;4995194;28;21099;-68
2023/08/12 05:36:01;;;;;;;5.53;5.13;;;18.50;99.90;;;;;;4995645;28;20492;-65
2023/08/12 05:38:29;;;;;;;6.17;5.67;;;18.50;99.90;;;;;;5000318;28;20479;-65
2023/08/12 05:40:58;;;;;;;6.57;5.97;;;18.50;99.90;;;;;;4991992;28;20496;-65
2023/08/12 05:43:26;;;;;;;7.20;6.57;;;18.50;99.90;;;;;;4997176;28;20484;-65
2023/08/12 05:45:54;;;;;;;6.53;5.93;;;18.50;99.90;;;;;;4999919;28;20483;-65
2023/08/12 05:48:22;;;;;;;7.10;6.50;;;18.50;99.90;;;;;;4995128;28;20503;-65
2023/08/12 05:50:50;;;;;;;6.70;6.30;;;18.50;99.90;;;;;;4990492;28;20472;-64
2023/08/12 05:53:17;;;;;;;6.90;6.40;;;18.50;99.90;;;;;;4991741;28;21127;-65
2023/08/12 05:55:45;;;;;;;7.00;6.40;;;18.60;99.90;;;;;;4990257;28;20497;-64
2023/08/12 05:58:15;;;;;;;6.80;6.40;;;18.60;99.90;;;;;;4990775;28;20468;-65
2023/08/12 06:00:45;;;;;;;7.03;6.53;;;18.60;99.90;;;;;;4996040;28;20476;-65
2023/08/12 06:03:13;;;;;;;7.23;6.50;;;18.60;99.90;;;;;;5001152;28;20582;-64
2023/08/12 06:05:42;;;;;;;8.03;7.23;;;18.60;99.90;;;;;;4991162;28;20500;-64
2023/08/12 06:08:10;;;;;;;8.53;6.80;;;18.60;99.90;;;;;;4990819;28;20499;-64
2023/08/12 06:10:38;;;;;;;7.53;7.03;;;18.60;99.90;;;;;;4991877;28;20571;-65
2023/08/12 06:13:07;;;;;;;8.60;7.97;;;18.60;99.90;;;;;;4993250;28;20496;-65
2023/08/12 06:15:37;;;;;;;8.10;7.40;;;18.60;99.90;;;;;;4991308;28;20499;-65
2023/08/12 06:18:05;;;;;;;8.00;7.40;;;18.60;99.90;;;;;;4996912;28;20567;-65
2023/08/12 06:20:33;;;;;;;8.53;7.90;;;18.60;99.90;;;;;;5000037;28;20484;-65
2023/08/12 06:23:01;;;;;;;8.47;7.77;;;18.60;99.90;;;;;;5015183;28;20558;-64
2023/08/12 06:25:29;;;;;;;8.70;8.00;;;18.60;99.90;;;;;;5000311;28;20468;-65
2023/08/12 06:27:58;;;;;;;9.13;8.40;;;18.60;99.90;;;;;;4998336;28;20890;-65
2023/08/12 06:30:26;;;;;;;9.37;8.70;;;18.60;99.90;;;;;;4991121;28;20471;-65
2023/08/12 06:32:55;;;;;;;9.97;9.07;;;18.60;99.90;;;;;;4994671;28;20496;-65
2023/08/12 06:35:23;;;;;;;9.03;8.43;;;18.60;99.90;;;;;;4992551;28;20506;-65
2023/08/12 06:37:51;;;;;;;9.30;8.50;;;18.60;99.90;;;;;;4997259;28;20515;-65
2023/08/12 06:40:19;;;;;;;10.30;9.50;;;18.60;99.90;;;;;;4987941;28;20480;-65
2023/08/12 06:42:47;;;;;;;10.30;9.50;;;18.60;99.90;;;;;;4994245;28;20571;-64
2023/08/12 06:45:15;;;;;;;9.00;8.30;;;18.60;99.90;;;;;;4991901;28;20472;-65
2023/08/12 06:47:43;;;;;;;10.13;9.13;;;18.60;99.90;;;;;;4994884;28;22011;-63
2023/08/12 06:50:13;;;;;;;9.70;8.83;;;18.60;99.90;;;;;;5015258;28;20483;-64
2023/08/12 06:52:41;;;;;;;9.80;9.07;;;18.60;99.90;;;;;;5010530;28;20553;-65
2023/08/12 06:55:09;;;;;;;9.83;9.13;;;18.60;99.90;;;;;;4992656;28;20571;-64
2023/08/12 06:57:37;;;;;;;10.37;9.47;;;18.70;99.90;;;;;;4995732;28;20495;-65
2023/08/12 07:00:06;;;;;;;11.47;10.57;;;18.70;99.90;;;;;;4999065;28;21361;-65
2023/08/12 07:02:34;;;;;;;10.10;9.20;;;18.70;99.90;;;;;;4988576;28;20603;-65
2023/08/12 07:05:02;;;;;;;10.70;9.90;;;18.70;99.90;;;;;;4968976;28;20594;-65
2023/08/12 07:07:31;;;;;;;11.80;10.93;;;18.70;99.90;;;;;;4981723;28;20607;-65
2023/08/12 07:10:00;;;;;;;12.33;11.37;;;18.70;99.90;;;;;;4966373;28;20996;-65
2023/08/12 07:12:28;;;;;;;11.93;10.83;;;18.80;99.90;;;;;;4975879;28;20592;-65
2023/08/12 07:14:56;;;;;;;11.87;10.90;;;18.80;99.90;;;;;;4977232;28;20972;-66
2023/08/12 07:17:24;;;;;;;12.27;11.37;;;18.90;99.90;;;;;;4978055;28;20507;-65
2023/08/12 07:19:52;;;;;;;13.73;12.50;;;18.90;99.90;;;;;;4978048;28;20626;-65
2023/08/12 07:22:20;;;;;;;14.47;13.27;;;19.00;99.90;;;;;;4975883;28;20586;-66
2023/08/12 07:24:52;;;;;;;14.40;13.10;;;19.00;99.90;;;;;;4977983;28;20485;-65
2023/08/12 07:27:20;;;;;;;14.30;13.00;;;19.00;99.90;;;;;;4983147;28;20480;-66
2023/08/12 07:29:48;;;;;;;14.73;13.53;;;19.10;99.90;;;;;;4977401;28;20482;-64
2023/08/12 07:32:16;;;;;;;15.37;14.13;;;19.10;99.90;;;;;;4987310;28;20492;-65
2023/08/12 07:34:44;;;;;;;13.40;12.30;;;19.20;99.90;;;;;;4979587;28;20472;-65
2023/08/12 07:37:12;;;;;;;14.50;13.20;;;19.20;99.90;;;;;;4985508;28;20507;-65
2023/08/12 07:39:40;;;;;;;15.00;13.77;;;19.30;99.90;;;;;;4985958;28;21127;-64
2023/08/12 07:42:09;;;;;;;15.33;14.03;;;19.40;99.90;;;;;;4979765;28;21001;-65
2023/08/12 07:44:38;;;;;;;14.90;13.70;;;19.50;99.90;;;;;;4977559;28;21179;-65
2023/08/12 07:47:06;;;;;;;15.77;14.47;;;19.60;99.90;;;;;;4984971;28;20550;-66
2023/08/12 07:49:34;;;;;;;16.73;15.37;;;19.60;99.90;;;;;;4980146;28;20480;-65
2023/08/12 07:52:02;;;;;;;16.10;14.60;;;19.70;99.90;;;;;;4977782;28;20489;-64
2023/08/12 07:54:30;;;;;;;17.80;16.50;;;19.70;99.90;;;;;;4979312;28;20478;-64
2023/08/12 07:56:59;;;;;;;17.17;15.83;;;19.80;99.90;;;;;;4985059;28;20814;-65
2023/08/12 07:59:28;;;;;;;18.07;16.57;;;19.80;99.90;;;;;;4985336;28;20504;-65
2023/08/12 08:01:56;;;;;;;17.97;16.47;;;19.90;99.90;;;;;;4963802;28;20500;-68
2023/08/12 08:04:24;;;;;;;15.77;14.57;;;19.90;99.90;;;;;;4980627;28;20551;-67
2023/08/12 08:06:52;;;;;;;16.80;15.40;;;20.00;99.90;;;;;;4976091;28;20475;-74
2023/08/12 08:09:20;;;;;;;16.13;14.83;;;20.00;99.90;;;;;;4981895;28;20487;-68
2023/08/12 08:11:48;;;;;;;17.00;15.43;;;20.10;99.90;;;;;;4980250;28;20550;-69
2023/08/12 08:14:16;;;;;;;16.17;14.63;;;20.10;99.90;;;;;;4986062;28;20483;-68
2023/08/12 08:16:45;;;;;;;15.83;14.43;;;20.20;99.90;;;;;;4984335;28;20575;-67
2023/08/12 08:19:13;;;;;;;16.90;15.53;;;20.20;99.90;;;;;;4985120;28;20475;-67
2023/08/12 08:21:42;;;;;;;16.27;14.83;;;20.20;99.90;;;;;;4978969;28;20531;-70
2023/08/12 08:24:11;;;;;;;16.07;14.67;;;20.30;99.90;;;;;;4979439;28;20468;-62
2023/08/12 08:26:40;;;;;;;14.23;13.23;;;20.40;99.90;;;;;;4984164;28;20531;-64
2023/08/12 08:29:08;;;;;;;14.93;13.83;;;20.40;99.90;;;;;;4983466;28;21099;-65
2023/08/12 08:31:36;;;;;;;14.27;13.10;;;20.50;99.90;;;;;;4987057;28;20599;-63
2023/08/12 08:34:06;;;;;;;15.37;14.03;;;20.60;99.90;;;;;;4991465;28;20592;-65
2023/08/12 08:36:34;;;;;;;15.20;14.00;;;20.60;99.90;;;;;;4979190;28;20530;-65
2023/08/12 08:39:03;;;;;;;15.03;13.73;;;20.70;99.90;;;;;;4974691;28;20622;-66
2023/08/12 08:41:32;;;;;;;14.90;13.53;;;20.70;99.90;;;;;;4983809;28;20524;-66
2023/08/12 08:44:03;;;;;;;14.30;13.20;;;20.80;99.90;;;;;;4984734;28;20625;-65
2023/08/12 08:46:32;;;;;;;15.17;13.67;;;20.80;99.90;;;;;;4982437;28;21691;-64
2023/08/12 08:49:00;;;;;;;13.30;12.20;;;20.90;99.90;;;;;;4988104;28;20634;-62
2023/08/12 08:51:31;;;;;;;14.30;13.00;;;20.90;99.90;;;;;;4988826;28;20496;-61
2023/08/12 08:54:00;;;;;;;14.43;13.23;;;21.00;99.90;;;;;;4997605;28;20476;-65
2023/08/12 08:56:31;;;;;;;15.17;13.80;;;21.00;99.90;;;;;;5011183;28;20522;-63
2023/08/12 08:59:00;;;;;;;13.43;12.23;;;21.10;99.90;;;;;;5004070;28;20483;-63
2023/08/12 09:01:30;;;;;;;13.10;12.10;;;21.10;99.90;;;;;;4994884;28;20500;-62
2023/08/12 09:03:58;;;;;;;13.20;12.10;;;21.10;99.90;;;;;;4987381;28;20492;-63
2023/08/12 09:06:28;;;;;;;11.37;10.40;;;21.20;99.90;;;;;;4978738;28;20984;-62
2023/08/12 09:08:58;;;;;;;11.33;10.33;;;21.20;99.90;;;;;;4982860;28;20611;-62
2023/08/12 09:11:26;;;;;;;11.97;10.80;;;21.20;99.90;;;;;;4985289;28;20552;-62
2023/08/12 09:13:54;;;;;;;11.93;10.93;;;21.20;99.90;;;;;;4980490;28;22197;-67
2023/08/12 09:16:22;;;;;;;12.80;11.73;;;21.20;99.90;;;;;;4989168;28;20508;-63
2023/08/12 09:18:56;;;;;;;11.63;10.43;;;21.20;99.90;;;;;;4987788;28;20526;-66
2023/08/12 09:21:24;;;;;;;11.47;10.47;;;21.20;99.90;;;;;;4991091;28;20493;-63
2023/08/12 09:23:52;;;;;;;10.93;10.03;;;21.20;99.90;;;;;;4985139;28;20495;-61
2023/08/12 09:26:22;;;;;;;11.40;10.37;;;21.20;99.90;;;;;;5010074;28;20504;-65
2023/08/12 09:28:50;;;;;;;10.90;9.97;;;21.30;99.90;;;;;;5008690;28;20468;-62
2023/08/12 09:31:26;;;;;;;10.40;9.57;;;21.30;99.90;;;;;;5015433;28;20496;-62
2023/08/12 09:33:57;;;;;;;10.40;9.60;;;21.30;99.90;;;;;;5013277;28;20484;-63
2023/08/12 09:36:29;;;;;;;12.13;10.93;;;21.30;99.90;;;;;;5014944;28;20503;-63
2023/08/12 09:38:57;;;;;;;11.43;10.43;;;21.20;99.90;;;;;;5010613;28;20543;-63
2023/08/12 09:41:28;;;;;;;11.70;10.60;;;21.30;99.90;;;;;;5007048;28;20527;-63
2023/08/12 09:43:57;;;;;;;9.47;8.77;;;21.30;99.90;;;;;;5011879;28;20492;-62
2023/08/12 09:46:26;;;;;;;9.87;9.07;;;21.30;99.90;;;;;;5006374;28;20476;-63
2023/08/12 09:48:54;;;;;;;8.70;8.00;;;21.30;99.90;;;;;;5008311;28;20472;-63
2023/08/12 09:51:22;;;;;;;10.00;9.20;;;21.20;99.90;;;;;;5001442;28;20904;-63
2023/08/12 09:53:50;;;;;;;11.90;10.80;;;21.20;99.90;;;;;;5010261;28;20484;-63
2023/08/12 09:56:20;;;;;;;12.57;11.50;;;21.20;99.90;;;;;;5012104;28;20471;-62
2023/08/12 09:58:51;;;;;;;11.07;10.27;;;21.20;99.90;;;;;;5008261;28;20523;-62
2023/08/12 10:02:03;;;;;;;13.37;12.27;;;21.20;99.90;;;;;;4981587;28;20484;-61
2023/08/12 10:04:38;;;;;;;14.67;13.37;;;21.20;99.90;;;;;;4957053;28;20499;-62
2023/08/12 10:07:07;;;;;;;14.70;13.37;;;21.10;99.90;;;;;;4979143;28;20534;-63
2023/08/12 10:09:37;;;;;;;15.63;14.43;;;21.20;99.90;;;;;;4976924;28;20596;-64
2023/08/12 10:12:07;;;;;;;15.73;14.43;;;21.20;99.90;;;;;;4982279;28;21069;-64
2023/08/12 10:14:37;;;;;;;14.90;13.50;;;21.20;99.90;;;;;;4987556;28;21689;-65
2023/08/12 10:17:06;;;;;;;14.07;12.87;;;21.20;99.90;;;;;;4985477;28;20503;-64
2023/08/12 10:19:35;;;;;;;17.03;15.60;;;21.20;99.90;;;;;;4978813;28;20507;-62
2023/08/12 10:22:04;;;;;;;16.77;15.30;;;21.30;99.90;;;;;;4984099;28;20728;-64
2023/08/12 10:24:34;;;;;;;16.40;15.00;;;21.30;99.90;;;;;;4984029;28;20484;-63
2023/08/12 10:27:02;;;;;;;15.80;14.50;;;21.30;99.90;;;;;;4975835;28;20475;-63
2023/08/12 10:29:31;;;;;;;15.63;14.23;;;21.40;99.90;;;;;;4989756;28;20463;-63
2023/08/12 10:32:03;;;;;;;15.63;14.40;;;21.40;99.90;;;;;;4984086;28;20499;-62
2023/08/12 10:34:32;;;;;;;16.30;14.83;;;21.40;99.90;;;;;;4987945;28;20575;-63
2023/08/12 10:37:03;;;;;;;15.60;14.00;;;21.50;99.90;;;;;;4966537;28;20606;-64
2023/08/12 10:39:33;;;;;;;16.33;15.03;;;21.60;99.90;;;;;;4981350;28;20520;-63
2023/08/12 10:42:02;;;;;;;14.97;13.77;;;21.60;99.90;;;;;;4978864;28;20496;-62
2023/08/12 10:44:41;;;;;;;14.10;12.80;;;21.50;99.90;;;;;;4970882;28;20535;-62
2023/08/12 10:47:11;;;;;;;14.97;13.77;;;21.60;99.90;;;;;;4967758;28;20471;-63
2023/08/12 10:49:43;;;;;;;16.47;15.13;;;21.60;99.90;;;;;;4982912;28;20884;-62
2023/08/12 10:52:27;;;;;;;15.87;14.57;;;21.60;99.90;;;;;;4984570;28;20506;-64
2023/08/12 10:54:55;;;;;;;14.40;13.20;;;21.60;99.90;;;;;;4984023;28;20487;-63
2023/08/12 10:57:37;;;;;;;13.50;12.40;;;21.60;99.90;;;;;;4986311;28;20471;-63
2023/08/12 11:00:11;;;;;;;12.63;11.57;;;21.60;99.90;;;;;;4984010;28;20477;-63
2023/08/12 11:02:40;;;;;;;12.90;11.90;;;21.60;99.90;;;;;;5001472;28;20484;-64
2023/08/12 11:05:10;;;;;;;12.70;11.60;;;21.70;99.90;;;;;;5016849;28;20986;-62
2023/08/12 11:07:40;;;;;;;12.50;11.43;;;21.70;99.90;;;;;;4987108;28;21225;-61
2023/08/12 11:10:14;;;;;;;11.80;10.80;;;21.70;99.90;;;;;;4985983;28;20560;-63
2023/08/12 11:12:46;;;;;;;14.43;13.20;;;21.80;99.90;;;;;;4981197;28;20488;-62
2023/08/12 11:15:14;;;;;;;11.60;10.70;;;22.00;99.90;;;;;;4984596;28;20473;-62
2023/08/12 11:17:46;;;;;;;10.53;9.73;;;22.00;99.90;;;;;;4977311;28;20492;-63
2023/08/12 11:20:14;;;;;;;9.63;8.83;;;22.10;99.90;;;;;;4986416;28;20476;-61
2023/08/12 11:22:44;;;;;;;11.30;10.30;;;22.20;99.90;;;;;;4981671;28;20590;-63
2023/08/12 11:25:13;;;;;;;10.17;9.37;;;22.20;99.90;;;;;;4989307;28;20559;-61
2023/08/12 11:27:43;;;;;;;9.07;8.40;;;22.20;99.90;;;;;;4982912;28;20470;-62
2023/08/12 11:30:15;;;;;;;8.10;7.50;;;22.20;99.90;;;;;;4998887;28;20472;-62
2023/08/12 11:32:45;;;;;;;8.70;7.80;;;22.10;99.90;;;;;;4988082;28;20528;-62
2023/08/12 11:35:15;;;;;;;8.73;8.10;;;22.10;99.90;;;;;;4992846;28;21828;-63
2023/08/12 11:37:46;;;;;;;7.70;7.10;;;22.00;99.90;;;;;;4989362;28;20472;-63
2023/08/12 11:40:16;;;;;;;7.63;7.00;;;22.00;99.90;;;;;;4984395;28;20468;-61
2023/08/12 11:42:46;;;;;;;8.03;7.43;;;21.90;99.90;;;;;;5013973;22;20634;-62
2023/08/12 11:45:16;;;;;;;8.33;7.53;;;21.80;99.90;;;;;;5034528;28;20501;-62
2023/08/12 11:47:52;;;;;;;7.80;7.20;;;21.70;99.90;;;;;;5043042;28;21029;-62
2023/08/12 11:50:21;;;;;;;7.87;7.20;;;21.70;99.90;;;;;;5045044;28;21267;-64
2023/08/12 11:52:50;;;;;;;7.53;7.03;;;21.60;99.90;;;;;;5039841;28;20491;-64
2023/08/12 11:55:18;;;;;;;7.60;6.90;;;21.60;99.90;;;;;;5037885;28;20601;-63
2023/08/12 11:57:47;;;;;;;7.80;7.10;;;21.60;99.90;;;;;;5044748;28;20467;-63
2023/08/12 12:00:18;;;;;;;7.07;6.53;;;21.60;99.90;;;;;;5033161;28;20826;-63
2023/08/12 12:02:51;;;;;;;7.43;6.80;;;21.50;99.90;;;;;;5036660;28;21057;-64
2023/08/12 12:05:24;;;;;;;7.60;6.90;;;21.50;99.90;;;;;;5037804;28;20903;-62
2023/08/12 12:07:53;;;;;;;7.90;7.10;;;21.40;99.90;;;;;;5041637;28;20471;-64
2023/08/12 12:10:27;;;;;;;8.20;7.30;;;21.30;99.90;;;;;;5037242;28;21111;-63
2023/08/12 12:13:00;;;;;;;7.80;7.30;;;21.30;99.90;;;;;;5029843;28;20585;-67
2023/08/12 12:15:28;;;;;;;7.50;6.90;;;21.20;99.90;;;;;;5044674;28;20543;-63
2023/08/12 12:17:59;;;;;;;7.20;6.70;;;21.20;99.90;;;;;;5041807;28;20477;-63
2023/08/12 12:20:29;;;;;;;8.30;7.50;;;21.10;99.90;;;;;;5038693;28;20498;-64
2023/08/12 12:22:57;;;;;;;7.77;7.17;;;21.10;99.90;;;;;;5036111;28;20550;-63
2023/08/12 12:25:25;;;;;;;7.70;7.10;;;21.10;99.90;;;;;;5035769;28;20864;-62
2023/08/12 12:27:54;;;;;;;8.37;7.73;;;21.10;99.90;;;;;;5044660;28;20627;-61
2023/08/12 12:30:22;;;;;;;8.00;7.50;;;21.10;99.90;;;;;;5039967;28;21033;-61
2023/08/12 12:32:51;;;;;;;7.70;7.07;;;21.10;99.90;;;;;;5046802;28;20522;-62
2023/08/12 12:35:20;;;;;;;11.10;8.20;;;21.10;99.90;;;;;;5036181;28;20493;-62
2023/08/12 12:37:48;;;;;;;8.17;7.50;;;21.10;99.90;;;;;;5044445;28;21107;-62
2023/08/12 12:40:17;;;;;;;8.57;7.87;;;21.20;99.90;;;;;;5041236;28;21833;-61
2023/08/12 12:42:45;;;;;;;7.90;7.30;;;21.20;99.90;;;;;;5031785;28;20506;-62
2023/08/12 12:45:13;;;;;;;8.53;7.50;;;21.30;99.90;;;;;;5029351;28;20496;-62
2023/08/12 12:47:41;;;;;;;8.00;7.30;;;21.30;99.90;;;;;;5029558;28;20523;-63
2023/08/12 12:50:09;;;;;;;8.53;7.60;;;21.30;99.90;;;;;;5041068;28;20466;-63